sensor_id;sensor_type;location;lat;lon;timestamp;pressure;altitude;pressure_sealevel;temperature;humidity
56894;BME280;43392;50.078;13.704;2023-07-09T00:00:13;97438.94;;;21.09;45.60
56894;BME280;43392;50.078;13.704;2023-07-09T00:02:41;97431.41;;;21.06;45.91
56894;BME280;43392;50.078;13.704;2023-07-09T00:05:11;97427.06;;;21.05;45.84
56894;BME280;43392;50.078;13.704;2023-07-09T00:07:39;97445.66;;;21.03;45.88
56894;BME280;43392;50.078;13.704;2023-07-09T00:10:13;97431.91;;;21.00;45.95
56894;BME280;43392;50.078;13.704;2023-07-09T00:12:40;97439.47;;;20.94;45.93
56894;BME280;43392;50.078;13.704;2023-07-09T00:15:09;97437.06;;;20.93;46.12
56894;BME280;43392;50.078;13.704;2023-07-09T00:17:36;97439.66;;;20.89;45.83
56894;BME280;43392;50.078;13.704;2023-07-09T00:20:10;97428.59;;;20.86;45.53
56894;BME280;43392;50.078;13.704;2023-07-09T00:22:39;97425.56;;;20.87;45.14
56894;BME280;43392;50.078;13.704;2023-07-09T00:25:09;97424.59;;;20.83;45.68
56894;BME280;43392;50.078;13.704;2023-07-09T00:27:39;97434.53;;;20.88;45.72
56894;BME280;43392;50.078;13.704;2023-07-09T00:30:14;97432.94;;;20.87;45.86
56894;BME280;43392;50.078;13.704;2023-07-09T00:32:41;97433.59;;;20.84;45.88
56894;BME280;43392;50.078;13.704;2023-07-09T00:35:11;97424.47;;;20.80;45.75
56894;BME280;43392;50.078;13.704;2023-07-09T00:37:41;97433.78;;;20.79;46.22
56894;BME280;43392;50.078;13.704;2023-07-09T00:40:13;97432.50;;;20.76;46.48
56894;BME280;43392;50.078;13.704;2023-07-09T00:42:44;97425.31;;;20.72;46.64
56894;BME280;43392;50.078;13.704;2023-07-09T00:45:19;97436.56;;;20.70;46.41
56894;BME280;43392;50.078;13.704;2023-07-09T00:47:48;97430.47;;;20.73;46.64
56894;BME280;43392;50.078;13.704;2023-07-09T00:50:26;97442.47;;;20.72;46.45
56894;BME280;43392;50.078;13.704;2023-07-09T00:52:57;97431.09;;;20.70;46.40
56894;BME280;43392;50.078;13.704;2023-07-09T00:55:30;97436.56;;;20.70;46.22
56894;BME280;43392;50.078;13.704;2023-07-09T00:58:02;97427.25;;;20.71;45.92
56894;BME280;43392;50.078;13.704;2023-07-09T01:00:30;97431.63;;;20.64;46.03
56894;BME280;43392;50.078;13.704;2023-07-09T01:03:02;97434.16;;;20.69;46.11
56894;BME280;43392;50.078;13.704;2023-07-09T01:05:32;97423.59;;;20.67;46.23
56894;BME280;43392;50.078;13.704;2023-07-09T01:07:59;97421.97;;;20.66;46.06
56894;BME280;43392;50.078;13.704;2023-07-09T01:10:25;97433.22;;;20.65;45.95
56894;BME280;43392;50.078;13.704;2023-07-09T01:12:52;97430.03;;;20.63;45.83
56894;BME280;43392;50.078;13.704;2023-07-09T01:15:19;97427.47;;;20.58;45.58
56894;BME280;43392;50.078;13.704;2023-07-09T01:17:45;97432.59;;;20.59;45.79
56894;BME280;43392;50.078;13.704;2023-07-09T01:20:17;97424.28;;;20.56;45.76
56894;BME280;43392;50.078;13.704;2023-07-09T01:22:49;97430.03;;;20.54;45.85
56894;BME280;43392;50.078;13.704;2023-07-09T01:25:16;97429.59;;;20.52;45.97
56894;BME280;43392;50.078;13.704;2023-07-09T01:27:45;97429.13;;;20.50;46.10
56894;BME280;43392;50.078;13.704;2023-07-09T01:30:15;97425.63;;;20.41;46.01
56894;BME280;43392;50.078;13.704;2023-07-09T01:32:42;97423.91;;;20.36;46.26
56894;BME280;43392;50.078;13.704;2023-07-09T01:35:12;97418.94;;;20.30;46.33
56894;BME280;43392;50.078;13.704;2023-07-09T01:37:41;97419.75;;;20.22;46.47
56894;BME280;43392;50.078;13.704;2023-07-09T01:40:12;97416.75;;;20.15;46.96
56894;BME280;43392;50.078;13.704;2023-07-09T01:42:41;97424.63;;;20.08;47.62
56894;BME280;43392;50.078;13.704;2023-07-09T01:45:09;97420.47;;;20.02;48.18
56894;BME280;43392;50.078;13.704;2023-07-09T01:47:37;97424.16;;;19.97;48.40
56894;BME280;43392;50.078;13.704;2023-07-09T01:50:04;97423.50;;;19.92;48.79
56894;BME280;43392;50.078;13.704;2023-07-09T01:52:32;97421.94;;;19.91;48.87
56894;BME280;43392;50.078;13.704;2023-07-09T01:54:58;97426.75;;;19.85;49.21
56894;BME280;43392;50.078;13.704;2023-07-09T01:57:28;97423.09;;;19.81;49.08
56894;BME280;43392;50.078;13.704;2023-07-09T02:00:01;97422.44;;;19.75;48.76
56894;BME280;43392;50.078;13.704;2023-07-09T02:02:29;97425.16;;;19.67;48.89
56894;BME280;43392;50.078;13.704;2023-07-09T02:04:57;97428.38;;;19.60;48.66
56894;BME280;43392;50.078;13.704;2023-07-09T02:07:25;97434.63;;;19.52;49.61
56894;BME280;43392;50.078;13.704;2023-07-09T02:09:52;97438.31;;;19.48;50.00
56894;BME280;43392;50.078;13.704;2023-07-09T02:12:19;97431.56;;;19.45;50.26
56894;BME280;43392;50.078;13.704;2023-07-09T02:14:47;97435.44;;;19.44;50.72
56894;BME280;43392;50.078;13.704;2023-07-09T02:17:15;97422.81;;;19.40;50.52
56894;BME280;43392;50.078;13.704;2023-07-09T02:19:42;97428.72;;;19.42;50.64
56894;BME280;43392;50.078;13.704;2023-07-09T02:22:10;97426.00;;;19.42;50.54
56894;BME280;43392;50.078;13.704;2023-07-09T02:24:37;97431.09;;;19.43;50.32
56894;BME280;43392;50.078;13.704;2023-07-09T02:27:06;97425.38;;;19.45;49.65
56894;BME280;43392;50.078;13.704;2023-07-09T02:29:33;97430.47;;;19.46;49.76
56894;BME280;43392;50.078;13.704;2023-07-09T02:32:02;97432.25;;;19.42;50.11
56894;BME280;43392;50.078;13.704;2023-07-09T02:34:30;97429.81;;;19.32;50.31
56894;BME280;43392;50.078;13.704;2023-07-09T02:36:58;97435.88;;;19.29;50.25
56894;BME280;43392;50.078;13.704;2023-07-09T02:39:25;97442.13;;;19.30;50.50
56894;BME280;43392;50.078;13.704;2023-07-09T02:41:52;97437.94;;;19.23;50.96
56894;BME280;43392;50.078;13.704;2023-07-09T02:44:19;97429.94;;;19.10;51.52
56894;BME280;43392;50.078;13.704;2023-07-09T02:46:46;97442.75;;;19.01;51.89
56894;BME280;43392;50.078;13.704;2023-07-09T02:49:14;97449.75;;;18.93;51.43
56894;BME280;43392;50.078;13.704;2023-07-09T02:51:41;97454.53;;;18.88;51.28
56894;BME280;43392;50.078;13.704;2023-07-09T02:54:08;97450.22;;;18.87;50.66
56894;BME280;43392;50.078;13.704;2023-07-09T02:56:34;97444.94;;;18.90;50.64
56894;BME280;43392;50.078;13.704;2023-07-09T02:59:01;97447.34;;;18.92;50.45
56894;BME280;43392;50.078;13.704;2023-07-09T03:01:27;97448.47;;;18.91;50.62
56894;BME280;43392;50.078;13.704;2023-07-09T03:03:55;97442.56;;;18.89;51.10
56894;BME280;43392;50.078;13.704;2023-07-09T03:06:24;97443.66;;;18.88;51.28
56894;BME280;43392;50.078;13.704;2023-07-09T03:08:51;97440.13;;;18.87;51.83
56894;BME280;43392;50.078;13.704;2023-07-09T03:11:19;97444.47;;;18.88;51.76
56894;BME280;43392;50.078;13.704;2023-07-09T03:13:46;97450.38;;;18.90;51.48
56894;BME280;43392;50.078;13.704;2023-07-09T03:16:13;97440.81;;;18.93;51.57
56894;BME280;43392;50.078;13.704;2023-07-09T03:18:40;97448.31;;;18.96;51.35
56894;BME280;43392;50.078;13.704;2023-07-09T03:21:07;97450.09;;;19.00;51.15
56894;BME280;43392;50.078;13.704;2023-07-09T03:23:35;97451.03;;;19.04;51.35
56894;BME280;43392;50.078;13.704;2023-07-09T03:26:01;97454.75;;;19.08;50.89
56894;BME280;43392;50.078;13.704;2023-07-09T03:28:30;97461.47;;;19.11;51.08
56894;BME280;43392;50.078;13.704;2023-07-09T03:30:57;97464.63;;;19.04;51.33
56894;BME280;43392;50.078;13.704;2023-07-09T03:33:24;97468.31;;;18.91;51.75
56894;BME280;43392;50.078;13.704;2023-07-09T03:35:51;97466.66;;;18.73;52.00
56894;BME280;43392;50.078;13.704;2023-07-09T03:38:18;97476.03;;;18.59;52.39
56894;BME280;43392;50.078;13.704;2023-07-09T03:40:50;97479.63;;;18.45;52.72
56894;BME280;43392;50.078;13.704;2023-07-09T03:43:16;97478.28;;;18.34;52.89
56894;BME280;43392;50.078;13.704;2023-07-09T03:45:44;97484.84;;;18.33;53.35
56894;BME280;43392;50.078;13.704;2023-07-09T03:48:11;97488.19;;;18.30;53.44
56894;BME280;43392;50.078;13.704;2023-07-09T03:50:38;97469.78;;;18.27;53.86
56894;BME280;43392;50.078;13.704;2023-07-09T03:53:04;97480.03;;;18.30;53.64
56894;BME280;43392;50.078;13.704;2023-07-09T03:55:31;97480.84;;;18.31;54.05
56894;BME280;43392;50.078;13.704;2023-07-09T03:57:59;97477.19;;;18.35;54.21
56894;BME280;43392;50.078;13.704;2023-07-09T04:00:28;97483.25;;;18.41;54.15
56894;BME280;43392;50.078;13.704;2023-07-09T04:02:54;97480.13;;;18.47;53.91
56894;BME280;43392;50.078;13.704;2023-07-09T04:05:22;97478.38;;;18.51;53.61
56894;BME280;43392;50.078;13.704;2023-07-09T04:07:48;97473.78;;;18.61;53.63
56894;BME280;43392;50.078;13.704;2023-07-09T04:10:15;97472.53;;;18.67;53.42
56894;BME280;43392;50.078;13.704;2023-07-09T04:12:42;97477.34;;;18.70;53.43
56894;BME280;43392;50.078;13.704;2023-07-09T04:15:11;97469.53;;;18.77;53.27
56894;BME280;43392;50.078;13.704;2023-07-09T04:17:39;97472.75;;;18.87;53.25
56894;BME280;43392;50.078;13.704;2023-07-09T04:20:07;97469.25;;;18.95;52.97
56894;BME280;43392;50.078;13.704;2023-07-09T04:22:35;97474.22;;;19.02;53.12
56894;BME280;43392;50.078;13.704;2023-07-09T04:25:02;97476.00;;;19.06;53.44
56894;BME280;43392;50.078;13.704;2023-07-09T04:27:30;97482.41;;;19.10;53.30
56894;BME280;43392;50.078;13.704;2023-07-09T04:29:57;97482.88;;;19.12;53.71
56894;BME280;43392;50.078;13.704;2023-07-09T04:32:25;97487.69;;;19.15;53.71
56894;BME280;43392;50.078;13.704;2023-07-09T04:34:51;97488.81;;;19.14;53.57
56894;BME280;43392;50.078;13.704;2023-07-09T04:37:18;97495.84;;;19.15;53.94
56894;BME280;43392;50.078;13.704;2023-07-09T04:39:45;97486.75;;;19.20;54.11
56894;BME280;43392;50.078;13.704;2023-07-09T04:42:14;97489.59;;;19.23;53.99
56894;BME280;43392;50.078;13.704;2023-07-09T04:44:41;97492.97;;;19.29;54.75
56894;BME280;43392;50.078;13.704;2023-07-09T04:47:08;97499.88;;;19.35;54.96
56894;BME280;43392;50.078;13.704;2023-07-09T04:49:36;97495.56;;;19.34;54.92
56894;BME280;43392;50.078;13.704;2023-07-09T04:52:03;97477.44;;;19.21;55.46
56894;BME280;43392;50.078;13.704;2023-07-09T04:54:30;97489.78;;;19.27;55.01
56894;BME280;43392;50.078;13.704;2023-07-09T04:56:58;97492.31;;;19.23;54.98
56894;BME280;43392;50.078;13.704;2023-07-09T04:59:24;97494.28;;;19.23;55.58
56894;BME280;43392;50.078;13.704;2023-07-09T05:01:51;97493.13;;;19.24;55.73
56894;BME280;43392;50.078;13.704;2023-07-09T05:04:17;97495.72;;;19.29;55.52
56894;BME280;43392;50.078;13.704;2023-07-09T05:06:45;97492.22;;;19.37;55.61
56894;BME280;43392;50.078;13.704;2023-07-09T05:09:12;97494.47;;;19.44;55.71
56894;BME280;43392;50.078;13.704;2023-07-09T05:11:39;97495.25;;;19.53;55.71
56894;BME280;43392;50.078;13.704;2023-07-09T05:14:05;97490.94;;;19.60;55.65
56894;BME280;43392;50.078;13.704;2023-07-09T05:16:32;97493.34;;;19.70;56.16
56894;BME280;43392;50.078;13.704;2023-07-09T05:18:58;97494.16;;;19.79;56.34
56894;BME280;43392;50.078;13.704;2023-07-09T05:21:25;97500.69;;;19.87;56.02
56894;BME280;43392;50.078;13.704;2023-07-09T05:23:53;97506.16;;;19.96;55.99
56894;BME280;43392;50.078;13.704;2023-07-09T05:26:19;97503.09;;;19.97;56.10
56894;BME280;43392;50.078;13.704;2023-07-09T05:28:46;97506.75;;;20.01;55.66
56894;BME280;43392;50.078;13.704;2023-07-09T05:31:13;97506.47;;;20.03;55.54
56894;BME280;43392;50.078;13.704;2023-07-09T05:33:39;97504.34;;;20.08;55.77
56894;BME280;43392;50.078;13.704;2023-07-09T05:36:06;97506.91;;;20.13;55.54
56894;BME280;43392;50.078;13.704;2023-07-09T05:38:33;97508.81;;;20.21;55.55
56894;BME280;43392;50.078;13.704;2023-07-09T05:41:02;97505.63;;;20.28;55.21
56894;BME280;43392;50.078;13.704;2023-07-09T05:43:30;97515.72;;;20.36;54.88
56894;BME280;43392;50.078;13.704;2023-07-09T05:45:56;97515.38;;;20.46;54.55
56894;BME280;43392;50.078;13.704;2023-07-09T05:48:23;97510.69;;;20.55;54.36
56894;BME280;43392;50.078;13.704;2023-07-09T05:50:52;97510.66;;;20.64;54.16
56894;BME280;43392;50.078;13.704;2023-07-09T05:53:19;97509.00;;;20.71;53.96
56894;BME280;43392;50.078;13.704;2023-07-09T05:55:46;97514.28;;;20.76;53.84
56894;BME280;43392;50.078;13.704;2023-07-09T05:58:14;97502.06;;;20.82;53.78
56894;BME280;43392;50.078;13.704;2023-07-09T06:00:40;97513.59;;;20.88;53.77
56894;BME280;43392;50.078;13.704;2023-07-09T06:03:07;97509.88;;;20.92;53.28
56894;BME280;43392;50.078;13.704;2023-07-09T06:05:34;97507.91;;;21.01;53.14
56894;BME280;43392;50.078;13.704;2023-07-09T06:08:01;97511.41;;;21.10;53.09
56894;BME280;43392;50.078;13.704;2023-07-09T06:10:28;97514.88;;;21.20;53.08
56894;BME280;43392;50.078;13.704;2023-07-09T06:12:55;97509.38;;;21.28;52.83
56894;BME280;43392;50.078;13.704;2023-07-09T06:15:24;97509.00;;;21.38;52.92
56894;BME280;43392;50.078;13.704;2023-07-09T06:17:51;97505.41;;;21.46;53.08
56894;BME280;43392;50.078;13.704;2023-07-09T06:20:18;97506.94;;;21.56;52.95
56894;BME280;43392;50.078;13.704;2023-07-09T06:22:44;97522.91;;;21.66;53.08
56894;BME280;43392;50.078;13.704;2023-07-09T06:25:12;97521.72;;;21.75;52.81
56894;BME280;43392;50.078;13.704;2023-07-09T06:27:38;97519.41;;;21.86;52.52
56894;BME280;43392;50.078;13.704;2023-07-09T06:30:06;97521.75;;;21.96;52.13
56894;BME280;43392;50.078;13.704;2023-07-09T06:32:34;97525.19;;;22.05;51.86
56894;BME280;43392;50.078;13.704;2023-07-09T06:35:01;97528.63;;;22.14;51.45
56894;BME280;43392;50.078;13.704;2023-07-09T06:37:27;97527.75;;;22.22;50.83
56894;BME280;43392;50.078;13.704;2023-07-09T06:39:54;97526.38;;;22.28;50.86
56894;BME280;43392;50.078;13.704;2023-07-09T06:42:20;97532.59;;;22.37;50.47
56894;BME280;43392;50.078;13.704;2023-07-09T06:44:47;97535.22;;;22.46;50.42
56894;BME280;43392;50.078;13.704;2023-07-09T06:47:14;97528.97;;;22.58;50.08
56894;BME280;43392;50.078;13.704;2023-07-09T06:49:42;97524.34;;;22.70;49.82
56894;BME280;43392;50.078;13.704;2023-07-09T06:52:08;97531.31;;;22.80;49.43
56894;BME280;43392;50.078;13.704;2023-07-09T06:54:35;97530.06;;;22.89;48.38
56894;BME280;43392;50.078;13.704;2023-07-09T06:57:02;97523.25;;;22.95;48.03
56894;BME280;43392;50.078;13.704;2023-07-09T06:59:29;97532.25;;;23.08;46.48
56894;BME280;43392;50.078;13.704;2023-07-09T07:01:56;97531.34;;;23.16;45.64
56894;BME280;43392;50.078;13.704;2023-07-09T07:04:22;97527.69;;;23.24;45.36
56894;BME280;43392;50.078;13.704;2023-07-09T07:06:53;97525.63;;;23.33;44.97
56894;BME280;43392;50.078;13.704;2023-07-09T07:09:22;97522.81;;;23.42;45.02
56894;BME280;43392;50.078;13.704;2023-07-09T07:11:49;97512.50;;;23.51;44.54
56894;BME280;43392;50.078;13.704;2023-07-09T07:14:16;97519.81;;;23.59;44.85
56894;BME280;43392;50.078;13.704;2023-07-09T07:16:42;97523.53;;;23.66;44.46
56894;BME280;43392;50.078;13.704;2023-07-09T07:19:09;97521.03;;;23.73;43.49
56894;BME280;43392;50.078;13.704;2023-07-09T07:21:36;97518.50;;;23.81;42.89
56894;BME280;43392;50.078;13.704;2023-07-09T07:24:04;97524.50;;;23.86;41.83
56894;BME280;43392;50.078;13.704;2023-07-09T07:26:31;97522.44;;;23.95;40.61
56894;BME280;43392;50.078;13.704;2023-07-09T07:28:58;97526.97;;;24.03;41.24
56894;BME280;43392;50.078;13.704;2023-07-09T07:31:24;97529.47;;;24.08;40.88
56894;BME280;43392;50.078;13.704;2023-07-09T07:33:51;97535.50;;;24.14;40.02
56894;BME280;43392;50.078;13.704;2023-07-09T07:36:17;97522.38;;;24.19;39.63
56894;BME280;43392;50.078;13.704;2023-07-09T07:38:44;97526.09;;;24.27;39.81
56894;BME280;43392;50.078;13.704;2023-07-09T07:41:12;97525.94;;;24.35;39.58
56894;BME280;43392;50.078;13.704;2023-07-09T07:43:39;97522.94;;;24.40;38.88
56894;BME280;43392;50.078;13.704;2023-07-09T07:46:06;97521.06;;;24.45;38.21
56894;BME280;43392;50.078;13.704;2023-07-09T07:48:33;97527.56;;;24.52;38.38
56894;BME280;43392;50.078;13.704;2023-07-09T07:51:01;97523.84;;;24.60;39.39
56894;BME280;43392;50.078;13.704;2023-07-09T07:53:28;97527.16;;;24.66;39.55
56894;BME280;43392;50.078;13.704;2023-07-09T07:55:55;97518.28;;;24.72;39.55
56894;BME280;43392;50.078;13.704;2023-07-09T07:58:24;97527.59;;;24.83;40.29
56894;BME280;43392;50.078;13.704;2023-07-09T08:00:54;97529.47;;;24.95;39.66
56894;BME280;43392;50.078;13.704;2023-07-09T08:03:22;97523.44;;;25.05;39.23
56894;BME280;43392;50.078;13.704;2023-07-09T08:05:49;97520.53;;;25.14;38.49
56894;BME280;43392;50.078;13.704;2023-07-09T08:08:15;97519.53;;;25.22;38.78
56894;BME280;43392;50.078;13.704;2023-07-09T08:10:42;97516.22;;;25.32;38.74
56894;BME280;43392;50.078;13.704;2023-07-09T08:13:09;97514.81;;;25.38;38.50
56894;BME280;43392;50.078;13.704;2023-07-09T08:15:37;97520.13;;;25.46;38.94
56894;BME280;43392;50.078;13.704;2023-07-09T08:18:04;97523.47;;;25.55;39.00
56894;BME280;43392;50.078;13.704;2023-07-09T08:20:30;97525.59;;;25.62;38.11
56894;BME280;43392;50.078;13.704;2023-07-09T08:22:58;97524.13;;;25.68;38.57
56894;BME280;43392;50.078;13.704;2023-07-09T08:25:25;97510.56;;;25.75;38.39
56894;BME280;43392;50.078;13.704;2023-07-09T08:27:51;97520.13;;;25.81;38.68
56894;BME280;43392;50.078;13.704;2023-07-09T08:30:18;97507.22;;;25.85;37.48
56894;BME280;43392;50.078;13.704;2023-07-09T08:32:46;97512.09;;;25.92;37.83
56894;BME280;43392;50.078;13.704;2023-07-09T08:35:13;97521.63;;;25.98;37.55
56894;BME280;43392;50.078;13.704;2023-07-09T08:37:40;97513.09;;;26.03;37.39
56894;BME280;43392;50.078;13.704;2023-07-09T08:40:12;97516.00;;;26.10;37.36
56894;BME280;43392;50.078;13.704;2023-07-09T08:42:43;97512.75;;;26.23;37.30
56894;BME280;43392;50.078;13.704;2023-07-09T08:45:24;97514.84;;;26.30;36.37
56894;BME280;43392;50.078;13.704;2023-07-09T08:47:59;97511.44;;;26.37;36.09
56894;BME280;43392;50.078;13.704;2023-07-09T08:50:34;97510.41;;;26.45;35.79
56894;BME280;43392;50.078;13.704;2023-07-09T08:53:04;97511.69;;;26.51;36.25
56894;BME280;43392;50.078;13.704;2023-07-09T08:55:32;97518.63;;;26.64;35.62
56894;BME280;43392;50.078;13.704;2023-07-09T08:58:12;97510.84;;;26.69;36.03
56894;BME280;43392;50.078;13.704;2023-07-09T09:00:44;97512.97;;;26.76;35.00
56894;BME280;43392;50.078;13.704;2023-07-09T09:03:20;97520.16;;;26.84;33.78
56894;BME280;43392;50.078;13.704;2023-07-09T09:05:53;97508.09;;;26.88;33.76
56894;BME280;43392;50.078;13.704;2023-07-09T09:08:28;97512.94;;;26.98;33.10
56894;BME280;43392;50.078;13.704;2023-07-09T09:10:59;97513.94;;;27.10;33.20
56894;BME280;43392;50.078;13.704;2023-07-09T09:13:28;97509.31;;;27.17;32.16
56894;BME280;43392;50.078;13.704;2023-07-09T09:15:59;97511.78;;;27.22;32.50
56894;BME280;43392;50.078;13.704;2023-07-09T09:18:36;97511.81;;;27.26;31.00
56894;BME280;43392;50.078;13.704;2023-07-09T09:21:13;97515.84;;;27.32;30.33
56894;BME280;43392;50.078;13.704;2023-07-09T09:23:49;97513.56;;;27.37;30.19
56894;BME280;43392;50.078;13.704;2023-07-09T09:26:18;97508.56;;;27.43;30.11
56894;BME280;43392;50.078;13.704;2023-07-09T09:28:47;97509.78;;;27.45;29.82
56894;BME280;43392;50.078;13.704;2023-07-09T09:31:15;97507.91;;;27.53;29.97
56894;BME280;43392;50.078;13.704;2023-07-09T09:33:47;97508.75;;;27.57;29.58
56894;BME280;43392;50.078;13.704;2023-07-09T09:36:16;97509.63;;;27.61;30.36
56894;BME280;43392;50.078;13.704;2023-07-09T09:38:43;97510.84;;;27.63;30.04
56894;BME280;43392;50.078;13.704;2023-07-09T09:41:15;97504.97;;;27.69;30.75
56894;BME280;43392;50.078;13.704;2023-07-09T09:43:43;97497.16;;;27.71;31.00
56894;BME280;43392;50.078;13.704;2023-07-09T09:46:21;97502.03;;;27.84;30.85
56894;BME280;43392;50.078;13.704;2023-07-09T09:48:50;97505.28;;;27.93;30.42
56894;BME280;43392;50.078;13.704;2023-07-09T09:51:19;97494.75;;;27.99;30.79
56894;BME280;43392;50.078;13.704;2023-07-09T09:53:48;97510.97;;;28.04;30.89
56894;BME280;43392;50.078;13.704;2023-07-09T09:56:19;97504.31;;;28.05;30.57
56894;BME280;43392;50.078;13.704;2023-07-09T09:58:46;97501.59;;;28.08;29.96
56894;BME280;43392;50.078;13.704;2023-07-09T10:01:15;97507.56;;;28.14;29.77
56894;BME280;43392;50.078;13.704;2023-07-09T10:03:42;97498.53;;;28.17;30.06
56894;BME280;43392;50.078;13.704;2023-07-09T10:06:15;97504.09;;;28.20;29.59
56894;BME280;43392;50.078;13.704;2023-07-09T10:08:50;97507.25;;;28.22;29.59
56894;BME280;43392;50.078;13.704;2023-07-09T10:11:25;97497.81;;;28.23;29.33
56894;BME280;43392;50.078;13.704;2023-07-09T10:13:58;97508.09;;;28.26;29.19
56894;BME280;43392;50.078;13.704;2023-07-09T10:16:32;97501.06;;;28.33;29.32
56894;BME280;43392;50.078;13.704;2023-07-09T10:19:14;97501.06;;;28.33;29.14
56894;BME280;43392;50.078;13.704;2023-07-09T10:21:49;97506.19;;;28.34;29.36
56894;BME280;43392;50.078;13.704;2023-07-09T10:24:30;97497.16;;;28.37;29.36
56894;BME280;43392;50.078;13.704;2023-07-09T10:27:06;97500.84;;;28.48;29.56
56894;BME280;43392;50.078;13.704;2023-07-09T10:29:49;97500.22;;;28.62;29.84
56894;BME280;43392;50.078;13.704;2023-07-09T10:32:29;97494.06;;;28.79;30.22
56894;BME280;43392;50.078;13.704;2023-07-09T10:35:00;97489.34;;;28.83;30.10
56894;BME280;43392;50.078;13.704;2023-07-09T10:37:53;97485.88;;;28.89;29.67
56894;BME280;43392;50.078;13.704;2023-07-09T10:40:27;97485.16;;;29.00;29.40
56894;BME280;43392;50.078;13.704;2023-07-09T10:42:58;97493.19;;;29.15;29.10
56894;BME280;43392;50.078;13.704;2023-07-09T10:45:29;97479.84;;;29.21;29.08
56894;BME280;43392;50.078;13.704;2023-07-09T10:48:00;97480.28;;;29.30;29.40
56894;BME280;43392;50.078;13.704;2023-07-09T10:50:31;97480.75;;;29.39;29.50
56894;BME280;43392;50.078;13.704;2023-07-09T10:53:05;97487.91;;;29.47;29.42
56894;BME280;43392;50.078;13.704;2023-07-09T10:55:43;97485.94;;;29.51;29.52
56894;BME280;43392;50.078;13.704;2023-07-09T10:58:21;97478.47;;;29.55;29.13
56894;BME280;43392;50.078;13.704;2023-07-09T11:00:49;97485.19;;;29.57;28.75
56894;BME280;43392;50.078;13.704;2023-07-09T11:03:19;97483.22;;;29.58;28.23
56894;BME280;43392;50.078;13.704;2023-07-09T11:05:49;97481.22;;;29.51;28.14
56894;BME280;43392;50.078;13.704;2023-07-09T11:08:21;97484.78;;;29.55;28.02
56894;BME280;43392;50.078;13.704;2023-07-09T11:10:52;97482.81;;;29.56;28.14
56894;BME280;43392;50.078;13.704;2023-07-09T11:13:27;97497.84;;;29.55;28.20
56894;BME280;43392;50.078;13.704;2023-07-09T11:15:58;97483.63;;;29.56;27.30
56894;BME280;43392;50.078;13.704;2023-07-09T11:18:29;97485.22;;;29.61;27.21
56894;BME280;43392;50.078;13.704;2023-07-09T11:20:59;97494.31;;;29.65;27.33
56894;BME280;43392;50.078;13.704;2023-07-09T11:23:39;97496.31;;;29.68;27.41
56894;BME280;43392;50.078;13.704;2023-07-09T11:26:12;97488.84;;;29.76;27.27
56894;BME280;43392;50.078;13.704;2023-07-09T11:28:46;97483.38;;;29.79;27.25
56894;BME280;43392;50.078;13.704;2023-07-09T11:31:21;97479.03;;;29.82;26.99
56894;BME280;43392;50.078;13.704;2023-07-09T11:33:59;97472.31;;;29.83;26.68
56894;BME280;43392;50.078;13.704;2023-07-09T11:36:27;97471.56;;;29.93;27.26
56894;BME280;43392;50.078;13.704;2023-07-09T11:38:55;97469.63;;;30.00;26.72
56894;BME280;43392;50.078;13.704;2023-07-09T11:41:27;97468.47;;;30.12;26.70
56894;BME280;43392;50.078;13.704;2023-07-09T11:44:03;97459.81;;;30.24;26.43
56894;BME280;43392;50.078;13.704;2023-07-09T11:46:31;97464.56;;;30.31;26.22
56894;BME280;43392;50.078;13.704;2023-07-09T11:48:59;97458.69;;;30.36;26.31
56894;BME280;43392;50.078;13.704;2023-07-09T11:51:34;97452.78;;;30.37;26.60
56894;BME280;43392;50.078;13.704;2023-07-09T11:54:10;97453.56;;;30.45;26.59
56894;BME280;43392;50.078;13.704;2023-07-09T11:56:38;97457.13;;;30.56;26.43
56894;BME280;43392;50.078;13.704;2023-07-09T11:59:04;97454.78;;;30.68;25.93
56894;BME280;43392;50.078;13.704;2023-07-09T12:01:42;97452.78;;;30.72;25.51
56894;BME280;43392;50.078;13.704;2023-07-09T12:04:12;97451.63;;;30.73;25.76
56894;BME280;43392;50.078;13.704;2023-07-09T12:06:41;97457.56;;;30.75;25.58
56894;BME280;43392;50.078;13.704;2023-07-09T12:09:14;97443.72;;;30.75;25.57
56894;BME280;43392;50.078;13.704;2023-07-09T12:11:44;97441.72;;;30.79;25.52
56894;BME280;43392;50.078;13.704;2023-07-09T12:14:12;97453.59;;;30.80;25.73
56894;BME280;43392;50.078;13.704;2023-07-09T12:16:41;97444.88;;;30.81;25.56
56894;BME280;43392;50.078;13.704;2023-07-09T12:19:11;97442.56;;;30.91;25.15
56894;BME280;43392;50.078;13.704;2023-07-09T12:21:39;97443.34;;;30.95;25.35
56894;BME280;43392;50.078;13.704;2023-07-09T12:24:18;97434.22;;;30.94;25.00
56894;BME280;43392;50.078;13.704;2023-07-09T12:26:47;97429.47;;;30.98;25.69
56894;BME280;43392;50.078;13.704;2023-07-09T12:29:14;97421.97;;;30.92;25.70
56894;BME280;43392;50.078;13.704;2023-07-09T12:31:41;97423.94;;;31.02;25.38
56894;BME280;43392;50.078;13.704;2023-07-09T12:34:12;97417.97;;;31.10;25.70
56894;BME280;43392;50.078;13.704;2023-07-09T12:36:44;97409.69;;;31.17;25.69
56894;BME280;43392;50.078;13.704;2023-07-09T12:39:12;97402.09;;;31.25;25.87
56894;BME280;43392;50.078;13.704;2023-07-09T12:41:43;97404.47;;;31.33;25.42
56894;BME280;43392;50.078;13.704;2023-07-09T12:44:16;97403.66;;;31.40;25.52
56894;BME280;43392;50.078;13.704;2023-07-09T12:46:44;97394.16;;;31.41;24.87
56894;BME280;43392;50.078;13.704;2023-07-09T12:49:20;97404.44;;;31.40;24.77
56894;BME280;43392;50.078;13.704;2023-07-09T12:51:47;97399.31;;;31.39;23.91
56894;BME280;43392;50.078;13.704;2023-07-09T12:54:19;97397.72;;;31.45;24.19
56894;BME280;43392;50.078;13.704;2023-07-09T12:56:51;97392.56;;;31.51;23.59
56894;BME280;43392;50.078;13.704;2023-07-09T12:59:21;97384.66;;;31.56;24.26